createdAt,value
2019-04-22T00:02:22.404Z,27.25
2019-04-22T00:05:05.741Z,19.48
2019-04-22T00:07:58.108Z,22.02
2019-04-22T00:10:32.734Z,22.85
2019-04-22T00:12:59.789Z,25.88
2019-04-22T00:15:27.244Z,20.48
2019-04-22T00:18:13.284Z,25.82
2019-04-22T00:20:43.935Z,24.02
2019-04-22T00:23:12.842Z,25.65
2019-04-22T00:25:52.852Z,22.98
2019-04-22T00:28:25.016Z,25.45
2019-04-22T00:30:54.803Z,21.73
2019-04-22T00:33:31.355Z,23.77
2019-04-22T00:36:06.458Z,26.70
2019-04-22T00:38:38.398Z,26.68
2019-04-22T00:41:13.148Z,32.35
2019-04-22T00:43:45.830Z,31.05
2019-04-22T00:46:11.119Z,25.65
2019-04-22T00:49:07.138Z,27.95
2019-04-22T00:51:23.924Z,25.57
2019-04-22T00:53:46.774Z,22.60
2019-04-22T00:56:24.398Z,21.57
2019-04-22T00:58:50.505Z,26.62
2019-04-22T01:01:26.602Z,25.00
2019-04-22T01:04:05.562Z,26.05
2019-04-22T01:06:35.875Z,26.68
2019-04-22T01:09:07.128Z,29.20
2019-04-22T01:11:33.473Z,26.37
2019-04-22T01:14:09.106Z,28.17
2019-04-22T01:16:47.138Z,27.73
2019-04-22T01:19:16.668Z,25.43
2019-04-22T01:21:44.771Z,27.05
2019-04-22T01:24:17.806Z,24.80
2019-04-22T01:26:43.568Z,27.25
2019-04-22T01:29:10.960Z,23.65
2019-04-22T01:31:37.169Z,26.27
2019-04-22T01:34:23.412Z,25.32
2019-04-22T01:36:57.792Z,44.85
2019-04-22T01:39:37.748Z,105.63
2019-04-22T01:42:05.678Z,32.88
2019-04-22T01:44:40.558Z,26.30
2019-04-22T01:47:19.923Z,27.20
2019-04-22T01:49:46.114Z,28.67
2019-04-22T01:52:17.043Z,23.67
2019-04-22T01:55:12.255Z,28.57
2019-04-22T01:57:27.047Z,24.80
2019-04-22T01:59:51.542Z,25.32
2019-04-22T02:02:30.483Z,27.10
2019-04-22T02:05:04.588Z,27.07
2019-04-22T02:07:34.405Z,25.65
2019-04-22T02:10:12.360Z,27.62
2019-04-22T02:15:16.980Z,29.50
2019-04-22T02:18:10.674Z,30.37
2019-04-22T02:20:16.881Z,27.52
2019-04-22T02:23:30.542Z,26.00
2019-04-22T02:25:50.990Z,29.55
2019-04-22T02:28:26.034Z,29.55
2019-04-22T02:43:51.427Z,29.95
2019-04-22T02:51:26.253Z,32.03
2019-04-22T02:59:03.858Z,34.30
2019-04-22T03:01:39.877Z,31.82
2019-04-22T03:04:04.387Z,33.38
2019-04-22T03:14:12.691Z,31.35
2019-04-22T03:19:43.350Z,30.08
2019-04-22T03:21:46.654Z,34.30
2019-04-22T03:24:25.743Z,33.13
2019-04-22T03:30:33.290Z,34.53
2019-04-22T03:35:31.508Z,32.58
2019-04-22T03:37:49.153Z,33.33
2019-04-22T03:45:28.419Z,36.88
2019-04-22T04:08:14.616Z,42.25
2019-04-22T04:15:38.362Z,41.00
2019-04-22T04:18:18.783Z,42.48
2019-04-22T04:21:00.656Z,44.10
2019-04-22T04:25:54.302Z,42.00
2019-04-22T04:31:09.973Z,44.27
2019-04-22T04:33:38.971Z,46.15
2019-04-22T04:36:11.529Z,42.83
2019-04-22T04:38:46.130Z,44.33
2019-04-22T04:41:26.642Z,45.78
2019-04-22T04:43:52.892Z,43.25
2019-04-22T04:46:24.817Z,45.98
2019-04-22T04:51:38.095Z,46.50
2019-04-22T04:54:05.665Z,51.25
2019-04-22T04:56:40.289Z,52.53
2019-04-22T05:06:42.979Z,63.20
2019-04-22T05:09:16.810Z,66.90
2019-04-22T05:12:02.852Z,70.15
2019-04-22T05:14:17.269Z,67.45
2019-04-22T05:16:51.543Z,68.45
2019-04-22T05:19:18.318Z,70.05
2019-04-22T05:21:50.529Z,68.78
2019-04-22T05:24:22.736Z,72.45
2019-04-22T05:29:34.337Z,70.35
2019-04-22T05:34:40.157Z,69.55
2019-04-22T05:37:01.296Z,69.58
2019-04-22T05:39:33.952Z,67.22
2019-04-22T05:44:43.475Z,72.00
2019-04-22T05:47:11.331Z,73.65
2019-04-22T05:49:34.762Z,64.50
2019-04-22T05:52:17.246Z,66.77
2019-04-22T05:54:53.235Z,74.10
2019-04-22T05:57:18.011Z,67.40
2019-04-22T05:59:52.177Z,71.95
2019-04-22T06:02:31.392Z,70.22
2019-04-22T06:05:00.315Z,75.55
2019-04-22T06:07:26.567Z,72.62
2019-04-22T06:10:06.673Z,75.37
2019-04-22T06:12:26.500Z,73.85
2019-04-22T06:15:10.130Z,67.75
2019-04-22T06:17:48.593Z,71.97
2019-04-22T06:20:15.391Z,69.25
2019-04-22T06:22:50.825Z,76.50
2019-04-22T06:25:27.671Z,74.82
2019-04-22T06:27:57.609Z,78.95
2019-04-22T06:30:46.651Z,77.72
2019-04-22T06:33:08.466Z,103.53
2019-04-22T06:38:26.399Z,77.90
2019-04-22T06:40:41.860Z,66.45
2019-04-22T06:45:41.587Z,67.82
2019-04-22T06:50:54.719Z,77.42
2019-04-22T06:53:24.604Z,78.72
2019-04-22T06:56:10.976Z,65.05
2019-04-22T06:58:28.900Z,69.25
2019-04-22T07:01:07.611Z,68.87
2019-04-22T07:03:45.264Z,67.90
2019-04-22T07:06:26.186Z,68.70
2019-04-22T07:09:09.378Z,67.35
2019-04-22T07:11:06.276Z,71.55
2019-04-22T07:14:01.885Z,64.95
2019-04-22T07:16:21.486Z,63.25
2019-04-22T07:18:48.458Z,70.57
2019-04-22T07:21:24.307Z,56.83
2019-04-22T07:24:03.135Z,59.18
2019-04-22T07:26:29.065Z,56.20
2019-04-22T07:28:55.091Z,57.73
2019-04-22T07:31:49.607Z,55.17
2019-04-22T07:34:08.221Z,56.70
2019-04-22T07:39:10.837Z,60.25
2019-04-22T07:41:43.174Z,57.75
2019-04-22T07:46:54.780Z,57.08
2019-04-22T07:49:18.820Z,61.30
2019-04-22T07:51:49.469Z,52.50
2019-04-22T07:54:22.166Z,54.75
2019-04-22T07:57:02.575Z,54.18
2019-04-22T07:59:30.831Z,61.50
2019-04-22T08:01:55.788Z,58.05
2019-04-22T08:04:49.465Z,55.52
2019-04-22T08:07:10.695Z,52.55
2019-04-22T08:09:44.605Z,54.33
2019-04-22T08:12:02.623Z,50.35
2019-04-22T08:14:42.274Z,56.50
2019-04-22T08:17:38.817Z,53.50
2019-04-22T08:19:50.654Z,52.30
2019-04-22T08:22:14.368Z,49.70
2019-04-22T08:24:47.236Z,49.23
2019-04-22T08:27:22.496Z,51.60
2019-04-22T08:30:08.598Z,50.73
2019-04-22T08:32:28.217Z,53.05
2019-04-22T08:34:55.410Z,58.13
2019-04-22T08:40:17.020Z,51.30
2019-04-22T08:42:55.561Z,57.98
2019-04-22T08:45:18.738Z,52.23
2019-04-22T08:47:42.252Z,53.42
2019-04-22T08:50:16.464Z,62.48
2019-04-22T08:52:54.873Z,55.33
2019-04-22T08:55:28.967Z,52.53
2019-04-22T08:58:14.974Z,57.85
2019-04-22T09:00:29.261Z,47.03
2019-04-22T09:02:59.506Z,48.48
2019-04-22T09:06:02.417Z,39.27
2019-04-22T09:08:14.232Z,41.00
2019-04-22T09:13:05.797Z,40.38
2019-04-22T09:15:46.732Z,31.35
2019-04-22T09:18:23.232Z,32.85
2019-04-22T09:20:49.649Z,33.95
2019-04-22T09:23:28.430Z,33.28
2019-04-22T09:25:53.236Z,37.65
2019-04-22T09:28:34.535Z,31.93
2019-04-22T09:31:01.917Z,34.65
2019-04-22T09:33:32.191Z,33.38
2019-04-22T09:36:12.833Z,31.10
2019-04-22T09:38:39.555Z,30.23
2019-04-22T09:41:14.172Z,34.38
2019-04-22T09:43:47.097Z,32.98
2019-04-22T09:46:19.761Z,32.80
2019-04-22T09:48:55.389Z,35.90
2019-04-22T09:51:23.230Z,29.15
2019-04-22T09:56:27.318Z,30.57
2019-04-22T09:58:59.358Z,37.33
2019-04-22T10:01:27.896Z,28.62
2019-04-22T10:04:03.705Z,27.55
2019-04-22T10:14:24.789Z,26.60
2019-04-22T10:16:43.762Z,29.45
2019-04-22T10:22:02.937Z,29.95
2019-04-22T10:24:16.662Z,30.97
2019-04-22T10:27:02.118Z,29.40
2019-04-22T10:29:42.057Z,31.37
2019-04-22T10:31:55.555Z,28.67
2019-04-22T10:34:19.177Z,31.50
2019-04-22T10:36:37.834Z,25.02
2019-04-22T10:39:10.572Z,23.65
2019-04-22T10:41:41.745Z,26.07
2019-04-22T10:44:13.004Z,29.02
2019-04-22T10:46:44.364Z,29.48
2019-04-22T10:49:15.975Z,25.75
2019-04-22T10:51:48.698Z,30.02
2019-04-22T10:54:19.807Z,27.80
2019-04-22T10:56:50.847Z,21.80
2019-04-22T10:59:22.677Z,23.22
2019-04-22T11:01:54.825Z,20.17
2019-04-22T11:04:28.050Z,24.67
2019-04-22T11:07:03.755Z,23.98
2019-04-22T11:09:34.102Z,19.52
2019-04-22T11:12:11.910Z,22.62
2019-04-22T11:14:38.583Z,21.23
2019-04-22T11:17:11.413Z,24.27
2019-04-22T11:19:43.623Z,23.87
2019-04-22T11:22:20.720Z,26.42
2019-04-22T11:24:46.694Z,22.22
2019-04-22T11:27:18.899Z,24.80
2019-04-22T11:29:49.816Z,24.75
2019-04-22T11:32:20.423Z,21.57
2019-04-22T11:34:51.319Z,27.75
2019-04-22T11:37:24.836Z,21.50
2019-04-22T11:40:06.822Z,17.48
2019-04-22T11:42:28.238Z,16.15
2019-04-22T11:44:59.332Z,23.47
2019-04-22T11:47:31.329Z,20.77
2019-04-22T11:50:02.118Z,22.35
2019-04-22T11:52:35.062Z,18.20
2019-04-22T11:55:08.705Z,21.25
2019-04-22T11:57:41.362Z,19.20
2019-04-22T12:00:16.787Z,17.85
2019-04-22T12:02:49.223Z,22.22
2019-04-22T12:05:21.756Z,20.10
2019-04-22T12:07:55.087Z,20.30
2019-04-22T12:10:34.771Z,21.77
2019-04-22T12:12:59.855Z,16.65
2019-04-22T12:15:31.168Z,19.73
2019-04-22T12:18:03.734Z,14.63
2019-04-22T12:20:35.039Z,19.00
2019-04-22T12:23:07.375Z,16.02
2019-04-22T12:25:47.623Z,21.90
2019-04-22T12:28:13.091Z,19.75
2019-04-22T12:30:43.831Z,17.50
2019-04-22T12:33:14.968Z,17.35
2019-04-22T12:35:46.410Z,14.25
2019-04-22T12:38:20.747Z,15.93
2019-04-22T12:40:58.462Z,14.98
2019-04-22T12:43:26.451Z,12.20
2019-04-22T12:45:58.273Z,14.55
2019-04-22T12:48:31.006Z,13.98
2019-04-22T12:51:02.937Z,16.40
2019-04-22T12:53:33.946Z,18.25
2019-04-22T12:56:05.120Z,18.60
2019-04-22T12:58:38.010Z,15.25
2019-04-22T13:01:09.011Z,19.50
2019-04-22T13:03:40.243Z,15.65
2019-04-22T13:06:11.994Z,20.65
2019-04-22T13:08:43.955Z,24.72
2019-04-22T13:11:18.515Z,16.73
2019-04-22T13:13:47.090Z,14.15
2019-04-22T13:16:18.001Z,17.42
2019-04-22T13:18:55.651Z,19.30
2019-04-22T13:21:22.778Z,15.20
2019-04-22T13:23:54.792Z,26.02
2019-04-22T13:26:27.167Z,15.08
2019-04-22T13:29:01.033Z,19.07
2019-04-22T13:31:33.064Z,17.12
2019-04-22T13:34:04.204Z,17.80
2019-04-22T13:36:36.631Z,21.23
2019-04-22T13:39:09.049Z,13.55
2019-04-22T13:41:46.410Z,18.25
2019-04-22T13:44:12.789Z,17.50
2019-04-22T13:47:04.091Z,15.30
2019-04-22T13:49:49.495Z,14.13
2019-04-22T13:52:24.522Z,20.32
2019-04-22T13:57:12.111Z,16.93
2019-04-22T13:59:36.196Z,15.78
2019-04-22T14:01:58.897Z,19.57
2019-04-22T14:04:34.727Z,18.05
2019-04-22T14:07:07.170Z,17.10
2019-04-22T14:09:38.218Z,13.58
2019-04-22T14:12:11.466Z,16.17
2019-04-22T14:14:42.807Z,17.40
2019-04-22T14:17:14.658Z,18.65
2019-04-22T14:19:46.511Z,16.15
2019-04-22T14:22:17.823Z,19.52
2019-04-22T14:24:48.810Z,17.92
2019-04-22T14:27:31.755Z,21.55
2019-04-22T14:29:53.885Z,18.60
2019-04-22T14:32:28.006Z,19.57
2019-04-22T14:34:57.327Z,16.67
2019-04-22T14:37:32.046Z,17.67
2019-04-22T14:40:07.083Z,21.60
2019-04-22T14:42:56.454Z,20.40
2019-04-22T14:45:42.026Z,14.85
2019-04-22T14:48:07.650Z,17.80
2019-04-22T14:50:35.147Z,16.12
2019-04-22T14:53:08.125Z,18.75
2019-04-22T14:55:25.947Z,18.25
2019-04-22T14:57:56.969Z,18.42
2019-04-22T15:00:29.486Z,21.20
2019-04-22T15:03:01.588Z,16.77
2019-04-22T15:05:32.307Z,25.72
2019-04-22T15:08:06.822Z,19.30
2019-04-22T15:10:38.165Z,22.62
2019-04-22T15:13:09.540Z,22.05
2019-04-22T15:15:52.795Z,23.67
2019-04-22T15:18:28.712Z,23.10
2019-04-22T15:21:00.869Z,22.52
2019-04-22T15:23:32.812Z,19.60
2019-04-22T15:26:04.569Z,20.70
2019-04-22T15:28:37.466Z,19.65
2019-04-22T15:31:09.171Z,24.30
2019-04-22T15:33:41.674Z,24.23
2019-04-22T15:36:14.072Z,24.85
2019-04-22T15:38:47.195Z,27.50
2019-04-22T15:41:18.799Z,17.17
2019-04-22T15:43:49.856Z,20.08
2019-04-22T15:46:20.609Z,23.25
2019-04-22T15:48:53.726Z,32.20
2019-04-22T15:51:24.715Z,29.18
2019-04-22T15:53:55.816Z,28.42
2019-04-22T15:56:32.991Z,26.02
2019-04-22T15:59:17.242Z,27.22
2019-04-22T16:01:40.640Z,30.08
2019-04-22T16:04:08.437Z,28.55
2019-04-22T16:06:41.117Z,30.00
2019-04-22T16:09:13.206Z,34.60
2019-04-22T16:11:45.827Z,31.40
2019-04-22T16:14:25.531Z,28.57
2019-04-22T16:17:10.492Z,30.57
2019-04-22T16:19:41.326Z,26.70
2019-04-22T16:22:16.818Z,26.10
2019-04-22T16:24:50.229Z,24.30
2019-04-22T16:27:26.556Z,29.52
2019-04-22T16:29:57.362Z,36.23
2019-04-22T16:32:29.880Z,28.42
2019-04-22T16:35:00.861Z,33.65
2019-04-22T16:37:34.742Z,32.98
2019-04-22T16:40:07.327Z,33.42
2019-04-22T16:42:47.330Z,32.50
2019-04-22T16:45:11.650Z,27.48
2019-04-22T16:47:45.794Z,25.62
2019-04-22T16:50:18.162Z,29.15
2019-04-22T16:52:50.100Z,40.35
2019-04-22T16:55:21.176Z,34.18
2019-04-22T16:57:54.569Z,30.23
2019-04-22T17:00:26.962Z,34.85
2019-04-22T17:03:06.734Z,33.75
2019-04-22T17:05:55.960Z,32.40
2019-04-22T17:08:28.721Z,32.10
2019-04-22T17:10:59.853Z,25.50
2019-04-22T17:13:32.814Z,26.73
2019-04-22T17:16:04.741Z,29.72
2019-04-22T17:18:37.080Z,32.30
2019-04-22T17:21:09.178Z,42.50
2019-04-22T17:23:41.394Z,35.45
2019-04-22T17:26:12.600Z,33.13
2019-04-22T17:28:45.830Z,40.05
2019-04-22T17:31:16.780Z,36.53
2019-04-22T17:33:48.733Z,30.55
2019-04-22T17:36:20.246Z,39.38
2019-04-22T17:39:01.187Z,32.98
2019-04-22T17:41:44.982Z,39.85
2019-04-22T17:44:25.073Z,34.05
2019-04-22T17:46:51.002Z,35.90
2019-04-22T17:49:48.685Z,33.00
2019-04-22T17:52:23.159Z,34.50
2019-04-22T17:54:50.259Z,33.67
2019-04-22T17:57:24.021Z,37.95
2019-04-22T17:59:56.732Z,44.98
2019-04-22T18:02:27.938Z,37.90
2019-04-22T18:04:49.593Z,35.60
2019-04-22T18:07:41.187Z,38.78
2019-04-22T18:10:27.427Z,42.25
2019-04-22T18:15:16.207Z,39.50
2019-04-22T18:17:54.198Z,38.42
2019-04-22T18:20:18.002Z,44.93
2019-04-22T18:22:45.940Z,41.95
2019-04-22T18:25:18.714Z,33.33
2019-04-22T18:28:15.058Z,41.70
2019-04-22T18:30:28.824Z,46.53
2019-04-22T18:33:07.571Z,37.53
2019-04-22T18:35:39.706Z,46.53
2019-04-22T18:38:28.042Z,41.37
2019-04-22T18:40:49.528Z,39.03
2019-04-22T18:43:26.197Z,34.83
2019-04-22T18:46:02.266Z,55.80
2019-04-22T18:48:25.529Z,41.50
2019-04-22T18:51:21.415Z,45.80
2019-04-22T18:54:01.838Z,46.83
2019-04-22T18:56:40.418Z,43.25
2019-04-22T18:58:53.803Z,50.58
2019-04-22T19:01:15.829Z,39.33
2019-04-22T19:03:55.188Z,50.15
2019-04-22T19:06:55.786Z,47.80
2019-04-22T19:09:15.344Z,41.13
2019-04-22T19:11:59.541Z,39.20
2019-04-22T19:14:20.053Z,41.18
2019-04-22T19:16:53.363Z,44.98
2019-04-22T19:21:55.948Z,43.35
2019-04-22T19:24:22.905Z,41.90
2019-04-22T19:29:33.698Z,51.23
2019-04-22T19:32:04.055Z,44.63
2019-04-22T19:34:36.737Z,38.98
2019-04-22T19:37:11.780Z,42.78
2019-04-22T19:39:50.118Z,40.52
2019-04-22T19:42:19.177Z,37.60
2019-04-22T19:44:46.649Z,40.52
2019-04-22T19:47:38.889Z,41.55
2019-04-22T19:49:58.412Z,42.67
2019-04-22T19:52:28.998Z,44.63
2019-04-22T19:55:01.513Z,44.48
2019-04-22T19:57:31.355Z,47.08
2019-04-22T20:00:03.882Z,47.50
2019-04-22T20:02:35.922Z,52.62
2019-04-22T20:05:27.929Z,50.52
2019-04-22T20:07:51.022Z,47.30
2019-04-22T20:10:32.697Z,45.33
2019-04-22T20:12:57.165Z,43.87
2019-04-22T20:15:26.795Z,50.12
2019-04-22T20:20:44.665Z,57.20
2019-04-22T20:23:05.292Z,43.33
2019-04-22T20:25:43.059Z,50.00
2019-04-22T20:28:20.596Z,47.33
2019-04-22T20:30:50.606Z,50.65
2019-04-22T20:33:25.632Z,45.80
2019-04-22T20:38:24.865Z,54.90
2019-04-22T20:41:02.700Z,49.67
2019-04-22T20:46:13.704Z,51.02
2019-04-22T20:48:43.906Z,45.55
2019-04-22T20:51:19.710Z,51.60
2019-04-22T20:53:48.027Z,50.10
2019-04-22T20:56:14.548Z,42.95
2019-04-22T20:58:51.775Z,45.05
2019-04-22T21:01:22.772Z,44.42
2019-04-22T21:03:44.078Z,54.48
2019-04-22T21:06:30.618Z,55.00
2019-04-22T21:08:59.129Z,54.45
2019-04-22T21:11:30.239Z,56.68
2019-04-22T21:14:04.388Z,44.35
2019-04-22T21:16:40.047Z,52.03
2019-04-22T21:19:18.681Z,43.68
2019-04-22T21:21:46.701Z,43.20
2019-04-22T21:24:09.246Z,46.88
2019-04-22T21:26:45.607Z,41.63
2019-04-22T21:29:18.633Z,53.08
2019-04-22T21:31:52.653Z,49.05
2019-04-22T21:34:20.331Z,47.65
2019-04-22T21:37:06.151Z,58.85
2019-04-22T21:39:28.918Z,53.52
2019-04-22T21:42:03.345Z,48.02
2019-04-22T21:44:35.145Z,48.78
2019-04-22T21:47:16.003Z,48.10
2019-04-22T21:49:42.907Z,59.63
2019-04-22T21:52:14.178Z,47.95
2019-04-22T21:54:46.719Z,56.58
2019-04-22T21:57:30.780Z,52.83
2019-04-22T22:00:09.722Z,51.63
2019-04-22T22:02:43.797Z,49.53
2019-04-22T22:05:00.141Z,57.58
2019-04-22T22:07:27.657Z,47.73
2019-04-22T22:10:16.925Z,54.27
2019-04-22T22:12:48.727Z,52.62
2019-04-22T22:15:22.661Z,45.88
2019-04-22T22:17:52.722Z,48.48
2019-04-22T22:20:22.736Z,52.15
2019-04-22T22:23:15.067Z,50.35
2019-04-22T22:25:28.507Z,51.90
2019-04-22T22:28:08.793Z,46.20
2019-04-22T22:30:50.683Z,52.43
2019-04-22T22:33:10.561Z,46.70
2019-04-22T22:35:45.741Z,50.45
2019-04-22T22:38:18.070Z,50.03
2019-04-22T22:40:36.256Z,44.35
2019-04-22T22:43:14.477Z,49.18
2019-04-22T22:45:43.778Z,50.43
2019-04-22T22:48:33.742Z,43.13
2019-04-22T22:51:06.095Z,43.73
2019-04-22T22:53:42.915Z,46.58
2019-04-22T22:56:10.729Z,43.85
2019-04-22T22:58:41.424Z,48.85
2019-04-22T23:01:09.559Z,48.05
2019-04-22T23:04:02.380Z,43.65
2019-04-22T23:06:26.523Z,49.95
2019-04-22T23:08:54.141Z,47.45
2019-04-22T23:11:34.881Z,48.42
2019-04-22T23:13:57.478Z,41.35
2019-04-22T23:16:17.634Z,40.92
2019-04-22T23:18:59.714Z,41.33
2019-04-22T23:21:39.125Z,42.33
2019-04-22T23:24:21.279Z,40.70
2019-04-22T23:27:07.883Z,42.73
2019-04-22T23:29:43.594Z,41.28
2019-04-22T23:32:18.468Z,37.67
2019-04-22T23:34:58.716Z,35.73
2019-04-22T23:37:21.800Z,36.50
2019-04-22T23:40:13.888Z,41.23
2019-04-22T23:42:33.718Z,37.80
2019-04-22T23:45:10.804Z,36.30
2019-04-22T23:47:38.119Z,34.50
2019-04-22T23:50:17.356Z,42.85
2019-04-22T23:52:50.843Z,36.38
2019-04-22T23:55:20.510Z,33.35
2019-04-22T23:58:02.671Z,40.80
